sensor_id;sensor_type;location;lat;lon;timestamp;P1;durP1;ratioP1;P2;durP2;ratioP2
13605;SDS011;6874;52.084;5.090;2023-07-30T00:02:14;160.90;;;155.43;;
13605;SDS011;6874;52.084;5.090;2023-07-30T00:04:41;167.23;;;161.63;;
13605;SDS011;6874;52.084;5.090;2023-07-30T00:07:06;163.80;;;158.30;;
13605;SDS011;6874;52.084;5.090;2023-07-30T00:09:32;160.67;;;155.23;;
13605;SDS011;6874;52.084;5.090;2023-07-30T00:11:57;151.47;;;146.33;;
13605;SDS011;6874;52.084;5.090;2023-07-30T00:14:23;159.97;;;154.57;;
13605;SDS011;6874;52.084;5.090;2023-07-30T00:16:49;153.43;;;148.23;;
13605;SDS011;6874;52.084;5.090;2023-07-30T00:19:14;154.07;;;148.83;;
13605;SDS011;6874;52.084;5.090;2023-07-30T00:21:40;161.90;;;156.50;;
13605;SDS011;6874;52.084;5.090;2023-07-30T00:24:08;154.77;;;149.57;;
13605;SDS011;6874;52.084;5.090;2023-07-30T00:26:34;157.13;;;151.80;;
13605;SDS011;6874;52.084;5.090;2023-07-30T00:28:59;150.97;;;145.83;;
13605;SDS011;6874;52.084;5.090;2023-07-30T00:31:25;147.03;;;142.03;;
13605;SDS011;6874;52.084;5.090;2023-07-30T00:33:50;144.23;;;139.30;;
13605;SDS011;6874;52.084;5.090;2023-07-30T00:36:16;150.53;;;145.40;;
13605;SDS011;6874;52.084;5.090;2023-07-30T00:38:42;153.30;;;148.10;;
13605;SDS011;6874;52.084;5.090;2023-07-30T00:41:07;147.50;;;142.47;;
13605;SDS011;6874;52.084;5.090;2023-07-30T00:43:33;148.40;;;143.37;;
13605;SDS011;6874;52.084;5.090;2023-07-30T00:45:58;143.30;;;138.43;;
13605;SDS011;6874;52.084;5.090;2023-07-30T00:48:24;139.97;;;135.27;;
13605;SDS011;6874;52.084;5.090;2023-07-30T00:50:49;147.53;;;142.53;;
13605;SDS011;6874;52.084;5.090;2023-07-30T00:53:15;148.00;;;142.93;;
13605;SDS011;6874;52.084;5.090;2023-07-30T00:55:44;148.87;;;143.77;;
13605;SDS011;6874;52.084;5.090;2023-07-30T00:58:10;148.73;;;143.63;;
13605;SDS011;6874;52.084;5.090;2023-07-30T01:00:36;151.13;;;145.93;;
13605;SDS011;6874;52.084;5.090;2023-07-30T01:03:02;154.77;;;149.50;;
13605;SDS011;6874;52.084;5.090;2023-07-30T01:05:28;146.87;;;141.87;;
13605;SDS011;6874;52.084;5.090;2023-07-30T01:07:53;135.43;;;130.73;;
13605;SDS011;6874;52.084;5.090;2023-07-30T01:10:19;135.33;;;130.70;;
13605;SDS011;6874;52.084;5.090;2023-07-30T01:12:46;134.33;;;129.73;;
13605;SDS011;6874;52.084;5.090;2023-07-30T01:15:12;129.67;;;125.27;;
13605;SDS011;6874;52.084;5.090;2023-07-30T01:17:38;136.93;;;132.23;;
13605;SDS011;6874;52.084;5.090;2023-07-30T01:20:04;132.67;;;128.17;;
13605;SDS011;6874;52.084;5.090;2023-07-30T01:22:30;121.27;;;117.17;;
13605;SDS011;6874;52.084;5.090;2023-07-30T01:24:56;123.30;;;119.10;;
13605;SDS011;6874;52.084;5.090;2023-07-30T01:27:22;121.60;;;117.40;;
13605;SDS011;6874;52.084;5.090;2023-07-30T01:32:31;98.77;;;95.43;;
13605;SDS011;6874;52.084;5.090;2023-07-30T01:34:57;95.37;;;92.13;;
13605;SDS011;6874;52.084;5.090;2023-07-30T01:37:25;92.87;;;89.73;;
13605;SDS011;6874;52.084;5.090;2023-07-30T01:39:51;97.13;;;93.83;;
13605;SDS011;6874;52.084;5.090;2023-07-30T01:42:17;98.43;;;95.10;;
13605;SDS011;6874;52.084;5.090;2023-07-30T01:44:43;103.00;;;99.43;;
13605;SDS011;6874;52.084;5.090;2023-07-30T01:47:08;102.83;;;99.27;;
13605;SDS011;6874;52.084;5.090;2023-07-30T01:49:34;105.17;;;101.50;;
13605;SDS011;6874;52.084;5.090;2023-07-30T01:51:59;102.87;;;99.33;;
13605;SDS011;6874;52.084;5.090;2023-07-30T01:54:25;106.83;;;103.10;;
13605;SDS011;6874;52.084;5.090;2023-07-30T01:56:51;105.80;;;102.10;;
13605;SDS011;6874;52.084;5.090;2023-07-30T01:59:16;112.13;;;108.23;;
13605;SDS011;6874;52.084;5.090;2023-07-30T02:01:43;112.83;;;108.80;;
13605;SDS011;6874;52.084;5.090;2023-07-30T02:04:09;119.90;;;115.67;;
13605;SDS011;6874;52.084;5.090;2023-07-30T02:06:34;118.47;;;114.27;;
13605;SDS011;6874;52.084;5.090;2023-07-30T02:09:00;125.07;;;120.63;;
13605;SDS011;6874;52.084;5.090;2023-07-30T02:11:26;127.07;;;122.57;;
13605;SDS011;6874;52.084;5.090;2023-07-30T02:13:51;135.70;;;130.90;;
13605;SDS011;6874;52.084;5.090;2023-07-30T02:16:17;135.77;;;130.90;;
13605;SDS011;6874;52.084;5.090;2023-07-30T02:18:42;142.80;;;137.70;;
13605;SDS011;6874;52.084;5.090;2023-07-30T02:21:08;153.83;;;148.33;;
13605;SDS011;6874;52.084;5.090;2023-07-30T02:23:34;156.07;;;150.37;;
13605;SDS011;6874;52.084;5.090;2023-07-30T02:25:59;165.77;;;159.63;;
13605;SDS011;6874;52.084;5.090;2023-07-30T02:28:25;168.03;;;161.87;;
13605;SDS011;6874;52.084;5.090;2023-07-30T02:30:51;173.97;;;167.50;;
13605;SDS011;6874;52.084;5.090;2023-07-30T02:33:16;180.03;;;173.37;;
13605;SDS011;6874;52.084;5.090;2023-07-30T02:35:45;177.27;;;170.60;;
13605;SDS011;6874;52.084;5.090;2023-07-30T02:38:11;186.57;;;179.57;;
13605;SDS011;6874;52.084;5.090;2023-07-30T02:40:36;193.27;;;186.10;;
13605;SDS011;6874;52.084;5.090;2023-07-30T02:43:02;184.97;;;178.07;;
13605;SDS011;6874;52.084;5.090;2023-07-30T02:45:27;182.27;;;175.37;;
13605;SDS011;6874;52.084;5.090;2023-07-30T02:47:53;194.00;;;186.80;;
13605;SDS011;6874;52.084;5.090;2023-07-30T02:50:19;181.23;;;174.40;;
13605;SDS011;6874;52.084;5.090;2023-07-30T02:52:44;187.43;;;180.43;;
13605;SDS011;6874;52.084;5.090;2023-07-30T02:55:10;179.70;;;172.97;;
13605;SDS011;6874;52.084;5.090;2023-07-30T02:57:35;187.90;;;180.90;;
13605;SDS011;6874;52.084;5.090;2023-07-30T03:00:01;185.30;;;178.40;;
13605;SDS011;6874;52.084;5.090;2023-07-30T03:02:29;182.33;;;175.47;;
13605;SDS011;6874;52.084;5.090;2023-07-30T03:04:54;174.47;;;167.90;;
13605;SDS011;6874;52.084;5.090;2023-07-30T03:07:20;170.53;;;164.13;;
13605;SDS011;6874;52.084;5.090;2023-07-30T03:09:46;167.80;;;161.50;;
13605;SDS011;6874;52.084;5.090;2023-07-30T03:12:11;166.67;;;160.40;;
13605;SDS011;6874;52.084;5.090;2023-07-30T03:14:37;162.00;;;155.93;;
13605;SDS011;6874;52.084;5.090;2023-07-30T03:17:03;160.70;;;154.70;;
13605;SDS011;6874;52.084;5.090;2023-07-30T03:19:29;163.13;;;157.07;;
13605;SDS011;6874;52.084;5.090;2023-07-30T03:21:55;167.07;;;161.00;;
13605;SDS011;6874;52.084;5.090;2023-07-30T03:24:21;164.70;;;158.67;;
13605;SDS011;6874;52.084;5.090;2023-07-30T03:26:46;158.87;;;153.00;;
13605;SDS011;6874;52.084;5.090;2023-07-30T03:29:12;154.30;;;148.60;;
13605;SDS011;6874;52.084;5.090;2023-07-30T03:31:37;154.30;;;148.47;;
13605;SDS011;6874;52.084;5.090;2023-07-30T03:34:03;160.10;;;154.17;;
13605;SDS011;6874;52.084;5.090;2023-07-30T03:36:29;147.07;;;141.63;;
13605;SDS011;6874;52.084;5.090;2023-07-30T03:38:54;149.03;;;143.53;;
13605;SDS011;6874;52.084;5.090;2023-07-30T03:41:20;140.43;;;135.23;;
13605;SDS011;6874;52.084;5.090;2023-07-30T03:43:45;149.93;;;144.33;;
13605;SDS011;6874;52.084;5.090;2023-07-30T03:46:11;139.77;;;134.57;;
13605;SDS011;6874;52.084;5.090;2023-07-30T03:48:36;144.43;;;139.07;;
13605;SDS011;6874;52.084;5.090;2023-07-30T03:51:03;144.87;;;139.53;;
13605;SDS011;6874;52.084;5.090;2023-07-30T03:53:29;145.67;;;140.33;;
13605;SDS011;6874;52.084;5.090;2023-07-30T03:55:54;143.63;;;138.30;;
13605;SDS011;6874;52.084;5.090;2023-07-30T03:58:20;144.67;;;139.40;;
13605;SDS011;6874;52.084;5.090;2023-07-30T04:00:45;149.10;;;143.67;;
13605;SDS011;6874;52.084;5.090;2023-07-30T04:03:11;145.10;;;139.77;;
13605;SDS011;6874;52.084;5.090;2023-07-30T04:05:37;147.03;;;141.73;;
13605;SDS011;6874;52.084;5.090;2023-07-30T04:08:02;150.83;;;145.33;;
13605;SDS011;6874;52.084;5.090;2023-07-30T04:10:28;145.60;;;140.20;;
13605;SDS011;6874;52.084;5.090;2023-07-30T04:12:53;144.80;;;139.40;;
13605;SDS011;6874;52.084;5.090;2023-07-30T04:15:19;138.63;;;133.50;;
13605;SDS011;6874;52.084;5.090;2023-07-30T04:17:44;150.53;;;144.93;;
13605;SDS011;6874;52.084;5.090;2023-07-30T04:20:10;148.73;;;143.07;;
13605;SDS011;6874;52.084;5.090;2023-07-30T04:22:36;156.90;;;150.87;;
13605;SDS011;6874;52.084;5.090;2023-07-30T04:25:02;170.63;;;164.13;;
13605;SDS011;6874;52.084;5.090;2023-07-30T04:27:28;176.80;;;170.03;;
13605;SDS011;6874;52.084;5.090;2023-07-30T04:29:54;166.23;;;159.77;;
13605;SDS011;6874;52.084;5.090;2023-07-30T04:32:19;177.27;;;170.50;;
13605;SDS011;6874;52.084;5.090;2023-07-30T04:34:45;195.17;;;187.67;;
13605;SDS011;6874;52.084;5.090;2023-07-30T04:37:11;187.90;;;180.63;;
13605;SDS011;6874;52.084;5.090;2023-07-30T04:39:36;193.93;;;186.37;;
13605;SDS011;6874;52.084;5.090;2023-07-30T04:42:02;198.70;;;191.10;;
13605;SDS011;6874;52.084;5.090;2023-07-30T04:44:28;200.57;;;192.83;;
13605;SDS011;6874;52.084;5.090;2023-07-30T04:46:54;197.70;;;190.13;;
13605;SDS011;6874;52.084;5.090;2023-07-30T04:49:19;202.30;;;194.53;;
13605;SDS011;6874;52.084;5.090;2023-07-30T04:51:45;198.53;;;190.83;;
13605;SDS011;6874;52.084;5.090;2023-07-30T04:54:11;204.50;;;196.57;;
13605;SDS011;6874;52.084;5.090;2023-07-30T04:56:36;200.67;;;192.87;;
13605;SDS011;6874;52.084;5.090;2023-07-30T04:59:02;205.97;;;197.97;;
13605;SDS011;6874;52.084;5.090;2023-07-30T05:01:28;210.47;;;202.27;;
13605;SDS011;6874;52.084;5.090;2023-07-30T05:03:54;200.43;;;192.63;;
13605;SDS011;6874;52.084;5.090;2023-07-30T05:06:19;219.90;;;211.40;;
13605;SDS011;6874;52.084;5.090;2023-07-30T05:08:45;223.50;;;214.83;;
13605;SDS011;6874;52.084;5.090;2023-07-30T05:11:11;201.03;;;193.33;;
13605;SDS011;6874;52.084;5.090;2023-07-30T05:13:36;214.97;;;206.83;;
13605;SDS011;6874;52.084;5.090;2023-07-30T05:16:02;217.87;;;209.67;;
13605;SDS011;6874;52.084;5.090;2023-07-30T05:18:28;211.57;;;203.53;;
13605;SDS011;6874;52.084;5.090;2023-07-30T05:20:54;203.90;;;196.40;;
13605;SDS011;6874;52.084;5.090;2023-07-30T05:23:20;212.53;;;204.90;;
13605;SDS011;6874;52.084;5.090;2023-07-30T05:25:45;211.00;;;203.40;;
13605;SDS011;6874;52.084;5.090;2023-07-30T05:28:11;200.30;;;193.10;;
13605;SDS011;6874;52.084;5.090;2023-07-30T05:30:37;204.80;;;197.50;;
13605;SDS011;6874;52.084;5.090;2023-07-30T05:33:03;209.83;;;202.33;;
13605;SDS011;6874;52.084;5.090;2023-07-30T05:35:28;209.27;;;201.90;;
13605;SDS011;6874;52.084;5.090;2023-07-30T05:37:54;208.67;;;201.33;;
13605;SDS011;6874;52.084;5.090;2023-07-30T05:40:20;197.00;;;190.10;;
13605;SDS011;6874;52.084;5.090;2023-07-30T05:42:46;176.37;;;170.17;;
13605;SDS011;6874;52.084;5.090;2023-07-30T05:45:11;172.97;;;166.97;;
13605;SDS011;6874;52.084;5.090;2023-07-30T05:47:37;141.27;;;136.30;;
13605;SDS011;6874;52.084;5.090;2023-07-30T05:50:03;137.50;;;132.67;;
13605;SDS011;6874;52.084;5.090;2023-07-30T05:52:28;134.03;;;129.33;;
13605;SDS011;6874;52.084;5.090;2023-07-30T05:54:54;127.63;;;123.13;;
13605;SDS011;6874;52.084;5.090;2023-07-30T05:57:19;113.20;;;109.20;;
13605;SDS011;6874;52.084;5.090;2023-07-30T05:59:45;118.87;;;114.73;;
13605;SDS011;6874;52.084;5.090;2023-07-30T06:02:11;119.43;;;115.27;;
13605;SDS011;6874;52.084;5.090;2023-07-30T06:04:37;120.40;;;116.23;;
13605;SDS011;6874;52.084;5.090;2023-07-30T06:07:03;122.77;;;118.57;;
13605;SDS011;6874;52.084;5.090;2023-07-30T06:09:29;129.63;;;125.27;;
13605;SDS011;6874;52.084;5.090;2023-07-30T06:11:56;137.80;;;133.17;;
13605;SDS011;6874;52.084;5.090;2023-07-30T06:14:25;143.10;;;138.30;;
13605;SDS011;6874;52.084;5.090;2023-07-30T06:16:52;165.50;;;159.93;;
13605;SDS011;6874;52.084;5.090;2023-07-30T06:19:18;183.90;;;177.53;;
13605;SDS011;6874;52.084;5.090;2023-07-30T06:21:44;185.70;;;179.23;;
13605;SDS011;6874;52.084;5.090;2023-07-30T06:24:10;201.90;;;195.00;;
13605;SDS011;6874;52.084;5.090;2023-07-30T06:26:36;207.33;;;200.17;;
13605;SDS011;6874;52.084;5.090;2023-07-30T06:29:01;224.73;;;216.73;;
13605;SDS011;6874;52.084;5.090;2023-07-30T06:31:27;220.60;;;212.70;;
13605;SDS011;6874;52.084;5.090;2023-07-30T06:33:53;233.07;;;224.63;;
13605;SDS011;6874;52.084;5.090;2023-07-30T06:36:19;216.23;;;208.23;;
13605;SDS011;6874;52.084;5.090;2023-07-30T06:38:44;213.57;;;205.57;;
13605;SDS011;6874;52.084;5.090;2023-07-30T06:41:10;222.53;;;214.20;;
13605;SDS011;6874;52.084;5.090;2023-07-30T06:43:36;215.37;;;207.23;;
13605;SDS011;6874;52.084;5.090;2023-07-30T06:46:01;215.53;;;207.50;;
13605;SDS011;6874;52.084;5.090;2023-07-30T06:48:27;219.57;;;211.20;;
13605;SDS011;6874;52.084;5.090;2023-07-30T06:50:53;208.17;;;200.20;;
13605;SDS011;6874;52.084;5.090;2023-07-30T06:53:18;200.33;;;192.70;;
13605;SDS011;6874;52.084;5.090;2023-07-30T06:55:44;193.30;;;185.87;;
13605;SDS011;6874;52.084;5.090;2023-07-30T06:58:10;203.50;;;195.77;;
13605;SDS011;6874;52.084;5.090;2023-07-30T07:00:36;189.13;;;181.73;;
13605;SDS011;6874;52.084;5.090;2023-07-30T07:03:02;203.57;;;195.77;;
13605;SDS011;6874;52.084;5.090;2023-07-30T07:05:28;207.53;;;199.53;;
13605;SDS011;6874;52.084;5.090;2023-07-30T07:07:54;197.67;;;190.07;;
13605;SDS011;6874;52.084;5.090;2023-07-30T07:10:20;206.50;;;198.50;;
13605;SDS011;6874;52.084;5.090;2023-07-30T07:12:46;213.87;;;205.67;;
13605;SDS011;6874;52.084;5.090;2023-07-30T07:15:12;247.87;;;238.53;;
13605;SDS011;6874;52.084;5.090;2023-07-30T07:17:38;270.50;;;260.50;;
13605;SDS011;6874;52.084;5.090;2023-07-30T07:20:04;257.03;;;247.43;;
13605;SDS011;6874;52.084;5.090;2023-07-30T07:22:31;223.73;;;215.63;;
13605;SDS011;6874;52.084;5.090;2023-07-30T07:24:57;208.23;;;200.60;;
13605;SDS011;6874;52.084;5.090;2023-07-30T07:27:23;187.50;;;180.57;;
13605;SDS011;6874;52.084;5.090;2023-07-30T07:29:49;166.53;;;160.43;;
13605;SDS011;6874;52.084;5.090;2023-07-30T07:32:16;158.80;;;153.20;;
13605;SDS011;6874;52.084;5.090;2023-07-30T07:34:45;164.20;;;158.43;;
13605;SDS011;6874;52.084;5.090;2023-07-30T07:37:11;151.40;;;146.20;;
13605;SDS011;6874;52.084;5.090;2023-07-30T07:39:40;148.70;;;143.60;;
13605;SDS011;6874;52.084;5.090;2023-07-30T07:42:08;130.50;;;126.00;;
13605;SDS011;6874;52.084;5.090;2023-07-30T07:44:34;131.83;;;127.37;;
13605;SDS011;6874;52.084;5.090;2023-07-30T07:47:00;124.13;;;119.87;;
13605;SDS011;6874;52.084;5.090;2023-07-30T07:49:26;138.53;;;133.70;;
13605;SDS011;6874;52.084;5.090;2023-07-30T07:51:51;140.23;;;135.30;;
13605;SDS011;6874;52.084;5.090;2023-07-30T07:54:17;141.37;;;136.37;;
13605;SDS011;6874;52.084;5.090;2023-07-30T07:56:42;149.50;;;144.23;;
13605;SDS011;6874;52.084;5.090;2023-07-30T07:59:08;167.37;;;161.63;;
13605;SDS011;6874;52.084;5.090;2023-07-30T08:01:34;181.40;;;175.23;;
13605;SDS011;6874;52.084;5.090;2023-07-30T08:03:59;158.73;;;153.07;;
13605;SDS011;6874;52.084;5.090;2023-07-30T08:06:25;147.00;;;141.30;;
13605;SDS011;6874;52.084;5.090;2023-07-30T08:08:50;154.53;;;148.27;;
13605;SDS011;6874;52.084;5.090;2023-07-30T08:11:16;151.77;;;145.53;;
13605;SDS011;6874;52.084;5.090;2023-07-30T08:13:42;163.47;;;156.63;;
13605;SDS011;6874;52.084;5.090;2023-07-30T08:16:07;187.83;;;179.60;;
13605;SDS011;6874;52.084;5.090;2023-07-30T08:18:33;230.33;;;220.13;;
13605;SDS011;6874;52.084;5.090;2023-07-30T08:20:59;243.77;;;233.20;;
13605;SDS011;6874;52.084;5.090;2023-07-30T08:23:25;249.33;;;238.60;;
13605;SDS011;6874;52.084;5.090;2023-07-30T08:25:54;250.27;;;239.43;;
13605;SDS011;6874;52.084;5.090;2023-07-30T08:28:20;272.97;;;261.10;;
13605;SDS011;6874;52.084;5.090;2023-07-30T08:30:45;266.77;;;255.13;;
13605;SDS011;6874;52.084;5.090;2023-07-30T08:33:11;247.67;;;236.87;;
13605;SDS011;6874;52.084;5.090;2023-07-30T08:35:37;221.80;;;212.13;;
13605;SDS011;6874;52.084;5.090;2023-07-30T08:38:02;198.40;;;189.70;;
13605;SDS011;6874;52.084;5.090;2023-07-30T08:40:28;185.73;;;177.90;;
13605;SDS011;6874;52.084;5.090;2023-07-30T08:42:54;183.00;;;175.53;;
13605;SDS011;6874;52.084;5.090;2023-07-30T08:45:20;188.63;;;180.93;;
13605;SDS011;6874;52.084;5.090;2023-07-30T08:47:47;196.87;;;188.53;;
13605;SDS011;6874;52.084;5.090;2023-07-30T08:50:13;203.63;;;194.50;;
13605;SDS011;6874;52.084;5.090;2023-07-30T08:52:39;246.27;;;235.03;;
13605;SDS011;6874;52.084;5.090;2023-07-30T08:55:05;295.00;;;281.40;;
13605;SDS011;6874;52.084;5.090;2023-07-30T08:57:31;323.47;;;308.90;;
13605;SDS011;6874;52.084;5.090;2023-07-30T09:00:08;365.13;;;349.47;;
13605;SDS011;6874;52.084;5.090;2023-07-30T09:05:09;292.20;;;281.07;;
13605;SDS011;6874;52.084;5.090;2023-07-30T09:07:35;263.73;;;253.73;;
13605;SDS011;6874;52.084;5.090;2023-07-30T09:10:01;270.40;;;259.37;;
13605;SDS011;6874;52.084;5.090;2023-07-30T09:12:30;300.73;;;287.90;;
13605;SDS011;6874;52.084;5.090;2023-07-30T09:14:58;315.07;;;301.13;;
13605;SDS011;6874;52.084;5.090;2023-07-30T09:17:23;326.73;;;312.47;;
13605;SDS011;6874;52.084;5.090;2023-07-30T09:19:50;314.53;;;301.43;;
13605;SDS011;6874;52.084;5.090;2023-07-30T09:22:19;292.67;;;280.77;;
13605;SDS011;6874;52.084;5.090;2023-07-30T09:24:52;284.90;;;273.30;;
13605;SDS011;6874;52.084;5.090;2023-07-30T09:27:22;282.73;;;271.63;;
13605;SDS011;6874;52.084;5.090;2023-07-30T09:29:50;292.37;;;280.83;;
13605;SDS011;6874;52.084;5.090;2023-07-30T09:32:20;294.47;;;282.83;;
13605;SDS011;6874;52.084;5.090;2023-07-30T09:34:50;299.77;;;287.63;;
13605;SDS011;6874;52.084;5.090;2023-07-30T09:37:16;294.30;;;282.13;;
13605;SDS011;6874;52.084;5.090;2023-07-30T09:39:42;296.27;;;284.40;;
13605;SDS011;6874;52.084;5.090;2023-07-30T09:42:08;286.10;;;274.50;;
13605;SDS011;6874;52.084;5.090;2023-07-30T09:44:35;301.73;;;290.27;;
13605;SDS011;6874;52.084;5.090;2023-07-30T09:47:03;208.40;;;201.43;;
13605;SDS011;6874;52.084;5.090;2023-07-30T09:49:30;377.63;;;362.63;;
13605;SDS011;6874;52.084;5.090;2023-07-30T09:51:57;358.93;;;342.83;;
13605;SDS011;6874;52.084;5.090;2023-07-30T09:54:25;362.97;;;346.57;;
13605;SDS011;6874;52.084;5.090;2023-07-30T09:56:51;370.87;;;354.77;;
13605;SDS011;6874;52.084;5.090;2023-07-30T09:59:17;286.07;;;274.10;;
13605;SDS011;6874;52.084;5.090;2023-07-30T10:01:43;270.87;;;259.67;;
13605;SDS011;6874;52.084;5.090;2023-07-30T10:04:11;313.30;;;299.70;;
13605;SDS011;6874;52.084;5.090;2023-07-30T10:06:38;341.60;;;326.27;;
13605;SDS011;6874;52.084;5.090;2023-07-30T10:09:07;342.10;;;326.93;;
13605;SDS011;6874;52.084;5.090;2023-07-30T10:11:36;337.97;;;323.47;;
13605;SDS011;6874;52.084;5.090;2023-07-30T10:14:02;292.07;;;280.50;;
13605;SDS011;6874;52.084;5.090;2023-07-30T10:16:28;178.10;;;171.47;;
13605;SDS011;6874;52.084;5.090;2023-07-30T10:18:58;84.27;;;81.37;;
13605;SDS011;6874;52.084;5.090;2023-07-30T10:21:24;68.10;;;65.67;;
13605;SDS011;6874;52.084;5.090;2023-07-30T10:26:32;72.83;;;70.10;;
13605;SDS011;6874;52.084;5.090;2023-07-30T10:31:53;117.43;;;112.83;;
13605;SDS011;6874;52.084;5.090;2023-07-30T10:34:20;128.53;;;123.50;;
13605;SDS011;6874;52.084;5.090;2023-07-30T10:36:47;206.57;;;198.63;;
13605;SDS011;6874;52.084;5.090;2023-07-30T10:39:17;206.43;;;198.43;;
13605;SDS011;6874;52.084;5.090;2023-07-30T10:41:51;214.70;;;206.10;;
13605;SDS011;6874;52.084;5.090;2023-07-30T10:44:24;232.33;;;222.83;;
13605;SDS011;6874;52.084;5.090;2023-07-30T10:46:55;152.93;;;146.93;;
13605;SDS011;6874;52.084;5.090;2023-07-30T10:49:22;116.80;;;112.37;;
13605;SDS011;6874;52.084;5.090;2023-07-30T10:51:48;110.63;;;106.27;;
13605;SDS011;6874;52.084;5.090;2023-07-30T10:54:14;103.13;;;99.07;;
13605;SDS011;6874;52.084;5.090;2023-07-30T10:56:41;126.90;;;121.97;;
13605;SDS011;6874;52.084;5.090;2023-07-30T10:59:07;216.10;;;208.47;;
13605;SDS011;6874;52.084;5.090;2023-07-30T11:01:37;304.80;;;294.13;;
13605;SDS011;6874;52.084;5.090;2023-07-30T11:04:12;213.40;;;205.80;;
13605;SDS011;6874;52.084;5.090;2023-07-30T11:06:44;193.60;;;186.83;;
13605;SDS011;6874;52.084;5.090;2023-07-30T11:09:19;163.30;;;157.60;;
13605;SDS011;6874;52.084;5.090;2023-07-30T11:11:48;202.57;;;195.57;;
13605;SDS011;6874;52.084;5.090;2023-07-30T11:14:15;265.53;;;256.57;;
13605;SDS011;6874;52.084;5.090;2023-07-30T11:16:47;226.37;;;218.90;;
13605;SDS011;6874;52.084;5.090;2023-07-30T11:19:19;195.17;;;188.63;;
13605;SDS011;6874;52.084;5.090;2023-07-30T11:21:45;151.17;;;146.13;;
13605;SDS011;6874;52.084;5.090;2023-07-30T11:24:13;134.50;;;130.00;;
13605;SDS011;6874;52.084;5.090;2023-07-30T11:26:39;107.50;;;103.77;;
13605;SDS011;6874;52.084;5.090;2023-07-30T11:29:19;96.53;;;93.13;;
13605;SDS011;6874;52.084;5.090;2023-07-30T11:31:45;118.87;;;114.83;;
13605;SDS011;6874;52.084;5.090;2023-07-30T11:34:12;127.63;;;123.37;;
13605;SDS011;6874;52.084;5.090;2023-07-30T11:36:39;171.17;;;165.47;;
13605;SDS011;6874;52.084;5.090;2023-07-30T11:39:06;170.60;;;164.90;;
13605;SDS011;6874;52.084;5.090;2023-07-30T11:41:33;164.73;;;159.30;;
13605;SDS011;6874;52.084;5.090;2023-07-30T11:43:58;186.07;;;179.87;;
13605;SDS011;6874;52.084;5.090;2023-07-30T11:46:24;140.47;;;135.73;;
13605;SDS011;6874;52.084;5.090;2023-07-30T11:48:51;138.87;;;134.17;;
13605;SDS011;6874;52.084;5.090;2023-07-30T11:53:48;110.30;;;106.40;;
13605;SDS011;6874;52.084;5.090;2023-07-30T11:56:28;119.40;;;114.93;;
13605;SDS011;6874;52.084;5.090;2023-07-30T11:58:56;134.03;;;128.93;;
13605;SDS011;6874;52.084;5.090;2023-07-30T12:01:27;128.30;;;123.47;;
13605;SDS011;6874;52.084;5.090;2023-07-30T12:03:58;124.77;;;120.07;;
13605;SDS011;6874;52.084;5.090;2023-07-30T12:09:23;99.20;;;95.67;;
13605;SDS011;6874;52.084;5.090;2023-07-30T12:11:56;107.23;;;103.33;;
13605;SDS011;6874;52.084;5.090;2023-07-30T12:17:13;106.17;;;102.30;;
13605;SDS011;6874;52.084;5.090;2023-07-30T12:19:39;117.20;;;112.97;;
13605;SDS011;6874;52.084;5.090;2023-07-30T12:22:05;116.03;;;111.83;;
13605;SDS011;6874;52.084;5.090;2023-07-30T12:24:31;131.90;;;127.10;;
13605;SDS011;6874;52.084;5.090;2023-07-30T12:26:57;144.47;;;139.17;;
13605;SDS011;6874;52.084;5.090;2023-07-30T12:29:22;151.33;;;145.83;;
13605;SDS011;6874;52.084;5.090;2023-07-30T12:31:49;141.37;;;136.17;;
13605;SDS011;6874;52.084;5.090;2023-07-30T12:34:16;136.90;;;131.60;;
13605;SDS011;6874;52.084;5.090;2023-07-30T12:36:42;133.83;;;128.87;;
13605;SDS011;6874;52.084;5.090;2023-07-30T12:39:07;197.93;;;190.93;;
13605;SDS011;6874;52.084;5.090;2023-07-30T12:41:33;206.03;;;198.90;;
13605;SDS011;6874;52.084;5.090;2023-07-30T12:43:59;234.23;;;226.30;;
13605;SDS011;6874;52.084;5.090;2023-07-30T12:46:24;249.17;;;240.90;;
13605;SDS011;6874;52.084;5.090;2023-07-30T12:48:54;256.93;;;248.43;;
13605;SDS011;6874;52.084;5.090;2023-07-30T12:51:21;286.67;;;277.07;;
13605;SDS011;6874;52.084;5.090;2023-07-30T12:53:46;282.20;;;272.73;;
13605;SDS011;6874;52.084;5.090;2023-07-30T12:56:12;287.47;;;277.87;;
13605;SDS011;6874;52.084;5.090;2023-07-30T12:58:40;279.50;;;270.17;;
13605;SDS011;6874;52.084;5.090;2023-07-30T13:01:05;286.63;;;277.07;;
13605;SDS011;6874;52.084;5.090;2023-07-30T13:03:31;302.27;;;292.00;;
13605;SDS011;6874;52.084;5.090;2023-07-30T13:05:57;330.23;;;318.80;;
13605;SDS011;6874;52.084;5.090;2023-07-30T13:08:22;354.73;;;342.27;;
13605;SDS011;6874;52.084;5.090;2023-07-30T13:10:48;395.40;;;380.80;;
13605;SDS011;6874;52.084;5.090;2023-07-30T13:13:14;398.10;;;383.37;;
13605;SDS011;6874;52.084;5.090;2023-07-30T13:15:39;389.43;;;375.00;;
13605;SDS011;6874;52.084;5.090;2023-07-30T13:18:05;377.30;;;363.50;;
13605;SDS011;6874;52.084;5.090;2023-07-30T13:20:30;344.03;;;331.53;;
13605;SDS011;6874;52.084;5.090;2023-07-30T13:22:57;317.73;;;306.10;;
13605;SDS011;6874;52.084;5.090;2023-07-30T13:25:22;333.80;;;321.77;;
13605;SDS011;6874;52.084;5.090;2023-07-30T13:27:49;311.53;;;300.43;;
13605;SDS011;6874;52.084;5.090;2023-07-30T13:30:15;292.20;;;281.97;;
13605;SDS011;6874;52.084;5.090;2023-07-30T13:32:40;269.30;;;260.00;;
13605;SDS011;6874;52.084;5.090;2023-07-30T13:35:06;263.33;;;254.33;;
13605;SDS011;6874;52.084;5.090;2023-07-30T13:37:32;271.10;;;261.90;;
13605;SDS011;6874;52.084;5.090;2023-07-30T13:39:57;256.17;;;247.37;;
13605;SDS011;6874;52.084;5.090;2023-07-30T13:42:23;265.37;;;256.37;;
13605;SDS011;6874;52.084;5.090;2023-07-30T13:44:48;257.63;;;248.87;;
13605;SDS011;6874;52.084;5.090;2023-07-30T13:47:14;244.70;;;236.37;;
13605;SDS011;6874;52.084;5.090;2023-07-30T13:49:40;227.90;;;220.03;;
13605;SDS011;6874;52.084;5.090;2023-07-30T13:52:05;269.43;;;260.03;;
13605;SDS011;6874;52.084;5.090;2023-07-30T13:54:31;283.93;;;274.00;;
13605;SDS011;6874;52.084;5.090;2023-07-30T13:56:56;296.63;;;286.37;;
13605;SDS011;6874;52.084;5.090;2023-07-30T13:59:22;284.40;;;274.53;;
13605;SDS011;6874;52.084;5.090;2023-07-30T14:01:48;280.40;;;270.70;;
13605;SDS011;6874;52.084;5.090;2023-07-30T14:04:13;274.47;;;265.07;;
13605;SDS011;6874;52.084;5.090;2023-07-30T14:06:39;273.17;;;263.83;;
13605;SDS011;6874;52.084;5.090;2023-07-30T14:09:04;287.30;;;277.57;;
13605;SDS011;6874;52.084;5.090;2023-07-30T14:11:30;271.30;;;262.03;;
13605;SDS011;6874;52.084;5.090;2023-07-30T14:13:55;259.83;;;251.03;;
13605;SDS011;6874;52.084;5.090;2023-07-30T14:16:22;271.43;;;262.27;;
13605;SDS011;6874;52.084;5.090;2023-07-30T14:18:48;269.47;;;260.37;;
13605;SDS011;6874;52.084;5.090;2023-07-30T14:21:14;254.97;;;246.33;;
13605;SDS011;6874;52.084;5.090;2023-07-30T14:23:39;250.03;;;241.53;;